Time;durP1;ratioP1;P1;durP2;ratioP2;P2;SDS_P1;SDS_P2;PMS_P1;PMS_P2;Temp;Humidity;BMP_temperature;BMP_pressure;BME280_temperature;BME280_humidity;BME280_pressure;Samples;Min_cycle;Max_cycle;Signal;HPM_P1;HPM_P2
2022/07/27 00:01:03;;;;;;;4.38;1.10;;;13.70;99.90;;;;;;4980055;28;20042;-74
2022/07/27 00:03:28;;;;;;;5.50;1.20;;;13.80;99.90;;;;;;4978713;28;20084;-73
2022/07/27 00:05:54;;;;;;;7.72;1.20;;;13.70;99.90;;;;;;4979285;28;20078;-72
2022/07/27 00:08:22;;;;;;;6.97;1.30;;;13.60;99.90;;;;;;4980540;28;20038;-73
2022/07/27 00:10:49;;;;;;;8.45;1.33;;;13.60;99.90;;;;;;4980232;28;20061;-73
2022/07/27 00:13:15;;;;;;;6.15;1.17;;;13.60;99.90;;;;;;4995963;28;20054;-73
2022/07/27 00:15:41;;;;;;;5.55;1.20;;;13.60;99.90;;;;;;4961716;28;20049;-73
2022/07/27 00:18:07;;;;;;;7.20;1.40;;;13.60;99.90;;;;;;4979040;28;20579;-73
2022/07/27 00:20:32;;;;;;;7.93;1.10;;;13.60;99.90;;;;;;4993645;28;20050;-73
2022/07/27 00:22:59;;;;;;;5.40;1.38;;;13.50;99.90;;;;;;4983240;28;20073;-73
2022/07/27 00:25:28;;;;;;;4.50;1.08;;;13.30;99.90;;;;;;4962689;28;20138;-73
2022/07/27 00:27:55;;;;;;;8.02;1.35;;;13.40;99.90;;;;;;4979318;28;20135;-73
2022/07/27 00:30:22;;;;;;;11.05;1.40;;;13.40;99.90;;;;;;4979354;28;20042;-73
2022/07/27 00:32:48;;;;;;;10.52;1.40;;;13.30;99.90;;;;;;4962177;28;20050;-72
2022/07/27 00:35:13;;;;;;;7.05;1.67;;;13.30;99.90;;;;;;4980660;28;20069;-73
2022/07/27 00:37:39;;;;;;;7.18;1.40;;;13.20;99.90;;;;;;4979581;28;20054;-73
2022/07/27 00:40:06;;;;;;;7.40;1.80;;;13.10;99.90;;;;;;4962743;28;20072;-73
2022/07/27 00:42:32;;;;;;;6.85;1.35;;;13.10;99.90;;;;;;4978462;28;20129;-72
2022/07/27 00:44:58;;;;;;;6.15;1.40;;;13.10;99.90;;;;;;4977779;28;20054;-73
2022/07/27 00:47:24;;;;;;;6.80;1.40;;;12.90;99.90;;;;;;4977133;28;20719;-73
2022/07/27 00:49:50;;;;;;;9.30;1.58;;;12.90;99.90;;;;;;4976860;28;20577;-73
2022/07/27 00:52:19;;;;;;;12.00;1.98;;;12.90;99.90;;;;;;5010002;28;20158;-73
2022/07/27 00:54:46;;;;;;;4.60;1.25;;;12.80;99.90;;;;;;4974732;28;20104;-73
2022/07/27 00:57:14;;;;;;;6.15;1.25;;;12.80;99.90;;;;;;4993073;28;20477;-74
2022/07/27 00:59:40;;;;;;;4.00;1.30;;;12.80;99.90;;;;;;4960854;28;20691;-73
2022/07/27 01:02:06;;;;;;;3.88;1.10;;;12.80;99.90;;;;;;5011042;28;20419;-73
2022/07/27 01:04:32;;;;;;;7.18;1.42;;;12.80;99.90;;;;;;4977616;28;20046;-73
2022/07/27 01:06:59;;;;;;;8.07;1.48;;;12.90;99.90;;;;;;4978413;28;20066;-72
2022/07/27 01:12:13;;;;;;;8.10;1.60;;;12.80;99.90;;;;;;4992927;28;20050;-73
2022/07/27 01:14:39;;;;;;;6.65;1.20;;;12.90;99.90;;;;;;4979199;28;20051;-73
2022/07/27 01:17:06;;;;;;;4.55;1.30;;;12.80;99.90;;;;;;4986563;28;20068;-73
2022/07/27 01:19:34;;;;;;;6.05;1.45;;;12.90;99.90;;;;;;4964624;28;20107;-73
2022/07/27 01:22:05;;;;;;;3.85;1.25;;;12.90;99.90;;;;;;4997552;28;20042;-73
2022/07/27 01:24:31;;;;;;;10.85;1.50;;;12.90;99.90;;;;;;5011959;28;20040;-73
2022/07/27 01:26:59;;;;;;;7.97;1.10;;;12.90;99.90;;;;;;4980432;28;20082;-73
2022/07/27 01:29:26;;;;;;;7.13;1.15;;;13.00;99.90;;;;;;4982616;28;20075;-73
2022/07/27 01:31:52;;;;;;;7.32;1.50;;;12.90;99.90;;;;;;4980448;28;20495;-73
2022/07/27 01:34:18;;;;;;;7.68;1.40;;;13.00;99.90;;;;;;4980967;28;20103;-73
2022/07/27 01:36:44;;;;;;;5.70;1.10;;;13.00;99.90;;;;;;4987240;28;20521;-74
2022/07/27 01:39:11;;;;;;;7.38;1.55;;;12.90;99.90;;;;;;4987876;28;20113;-72
2022/07/27 01:41:37;;;;;;;8.25;1.92;;;12.90;99.90;;;;;;5035856;28;20059;-73
2022/07/27 01:44:03;;;;;;;5.50;1.25;;;12.90;99.90;;;;;;5035712;28;20035;-73
2022/07/27 01:46:29;;;;;;;10.13;1.52;;;12.80;99.90;;;;;;4986994;28;20552;-73
2022/07/27 01:48:54;;;;;;;6.38;1.33;;;13.10;99.90;;;;;;5002098;28;20077;-73
2022/07/27 01:51:20;;;;;;;4.55;1.13;;;12.70;99.90;;;;;;4987928;28;20049;-73
2022/07/27 01:53:46;;;;;;;6.60;1.38;;;12.60;99.90;;;;;;4986112;28;20070;-74
2022/07/27 01:56:12;;;;;;;4.85;1.00;;;12.60;99.90;;;;;;4986258;28;20045;-73
2022/07/27 01:58:39;;;;;;;4.72;1.38;;;12.60;99.90;;;;;;4970464;28;20501;-73
2022/07/27 02:01:06;;;;;;;7.78;1.50;;;12.50;99.90;;;;;;5002063;28;20091;-74
2022/07/27 02:03:32;;;;;;;4.40;1.33;;;12.50;99.90;;;;;;4986639;28;20488;-73
2022/07/27 02:05:58;;;;;;;4.60;1.40;;;12.50;99.90;;;;;;4986576;28;20042;-74
2022/07/27 02:08:24;;;;;;;9.90;1.67;;;12.50;99.90;;;;;;4986800;28;20491;-74
2022/07/27 02:13:34;;;;;;;4.88;1.17;;;12.40;99.90;;;;;;5003442;28;20129;-74
2022/07/27 02:16:00;;;;;;;5.25;1.20;;;12.50;99.90;;;;;;4986405;28;20122;-74
2022/07/27 02:18:26;;;;;;;7.45;1.42;;;12.40;99.90;;;;;;4967115;28;20118;-74
2022/07/27 02:20:52;;;;;;;6.93;1.40;;;12.30;99.90;;;;;;4968680;28;20047;-73
2022/07/27 02:23:19;;;;;;;4.18;1.38;;;12.30;99.90;;;;;;4950853;28;20104;-74
2022/07/27 02:25:45;;;;;;;5.78;1.58;;;12.30;99.90;;;;;;4968155;28;20038;-73
2022/07/27 02:28:10;;;;;;;5.68;1.50;;;12.30;99.90;;;;;;4953878;28;20051;-73
2022/07/27 02:30:36;;;;;;;8.48;1.50;;;12.30;99.90;;;;;;4968307;28;20038;-74
2022/07/27 02:33:02;;;;;;;5.63;1.60;;;12.30;99.90;;;;;;4967708;28;20150;-74
2022/07/27 02:35:28;;;;;;;6.15;1.60;;;12.30;99.90;;;;;;4966324;28;20158;-73
2022/07/27 02:37:54;;;;;;;4.70;1.58;;;12.30;99.90;;;;;;4982548;28;20104;-73
2022/07/27 02:40:19;;;;;;;7.32;1.65;;;12.40;99.90;;;;;;4968351;28;20038;-73
2022/07/27 02:42:46;;;;;;;7.40;1.50;;;12.40;99.90;;;;;;4966436;28;20063;-73
2022/07/27 02:45:15;;;;;;;8.90;1.80;;;12.50;99.90;;;;;;4982222;28;20046;-73
2022/07/27 02:47:41;;;;;;;7.95;1.73;;;12.40;99.90;;;;;;4967719;28;20043;-74
2022/07/27 02:50:08;;;;;;;7.43;1.77;;;12.50;99.90;;;;;;4965256;28;20051;-73
2022/07/27 02:52:35;;;;;;;8.30;1.35;;;12.50;99.90;;;;;;4982731;28;20054;-73
2022/07/27 02:55:02;;;;;;;4.78;1.52;;;12.60;99.90;;;;;;4967603;28;20126;-73
2022/07/27 02:57:28;;;;;;;9.15;1.73;;;12.60;99.90;;;;;;4965523;28;20442;-73
2022/07/27 02:59:53;;;;;;;7.28;1.70;;;12.60;99.90;;;;;;4982306;28;20104;-73
2022/07/27 03:02:20;;;;;;;6.78;1.60;;;12.60;99.90;;;;;;4966811;28;20046;-73
2022/07/27 03:04:45;;;;;;;7.28;1.88;;;12.60;99.90;;;;;;4949955;28;20038;-74
2022/07/27 03:07:14;;;;;;;6.32;1.58;;;12.60;99.90;;;;;;4982611;28;20080;-73
2022/07/27 03:09:40;;;;;;;6.45;1.80;;;12.60;99.90;;;;;;4965715;28;20518;-73
2022/07/27 03:12:06;;;;;;;6.85;2.00;;;12.60;99.90;;;;;;4966674;28;20039;-73
2022/07/27 03:14:31;;;;;;;7.25;2.00;;;12.60;99.90;;;;;;4982359;28;20853;-73
2022/07/27 03:16:57;;;;;;;7.80;1.70;;;12.60;99.90;;;;;;4973122;28;20055;-73
2022/07/27 03:19:22;;;;;;;9.68;1.80;;;12.70;99.90;;;;;;4984085;28;20112;-73
2022/07/27 03:21:48;;;;;;;9.55;2.40;;;12.70;99.90;;;;;;4985477;28;20054;-74
2022/07/27 03:24:14;;;;;;;6.95;1.98;;;12.70;99.90;;;;;;4985193;28;20050;-74
2022/07/27 03:26:40;;;;;;;3.90;1.83;;;12.70;99.90;;;;;;4984801;28;20407;-74
2022/07/27 03:29:05;;;;;;;7.35;1.70;;;12.70;99.90;;;;;;4985257;28;20046;-74
2022/07/27 03:31:31;;;;;;;9.98;2.03;;;12.70;99.90;;;;;;5000793;28;20280;-74
2022/07/27 03:33:57;;;;;;;4.35;1.63;;;12.70;99.90;;;;;;4984464;28;20050;-73
2022/07/27 03:36:22;;;;;;;5.88;2.08;;;12.70;99.90;;;;;;4986782;28;20117;-74
2022/07/27 03:38:48;;;;;;;5.00;1.65;;;12.70;99.90;;;;;;4983795;28;20055;-73
2022/07/27 03:41:14;;;;;;;6.50;2.03;;;12.70;99.90;;;;;;5001190;28;20406;-74
2022/07/27 03:43:39;;;;;;;7.20;1.90;;;12.70;99.90;;;;;;4985074;28;20031;-74
2022/07/27 03:46:05;;;;;;;10.23;1.80;;;12.70;99.90;;;;;;4985200;28;20069;-74
2022/07/27 03:48:31;;;;;;;5.85;1.73;;;12.70;99.90;;;;;;4967773;28;20214;-74
2022/07/27 03:50:56;;;;;;;6.05;1.70;;;12.70;99.90;;;;;;4969419;28;20042;-74
2022/07/27 03:53:22;;;;;;;9.40;1.80;;;12.70;99.90;;;;;;4985911;28;20038;-74
2022/07/27 03:55:51;;;;;;;6.72;1.75;;;12.70;99.90;;;;;;4983125;28;20678;-74
2022/07/27 03:58:17;;;;;;;7.10;1.83;;;12.90;99.90;;;;;;4969684;28;20121;-74
2022/07/27 04:00:43;;;;;;;5.53;1.60;;;12.70;99.90;;;;;;4968278;28;20126;-74
2022/07/27 04:03:09;;;;;;;7.60;2.13;;;12.70;99.90;;;;;;4985696;28;20137;-74
2022/07/27 04:05:35;;;;;;;9.65;1.88;;;12.70;99.90;;;;;;4985788;28;20457;-74
2022/07/27 04:08:01;;;;;;;7.53;1.98;;;12.70;99.90;;;;;;4984556;28;20506;-74
2022/07/27 04:10:27;;;;;;;7.68;1.90;;;12.70;99.90;;;;;;4984725;28;20126;-74
2022/07/27 04:12:52;;;;;;;9.95;2.13;;;12.70;99.90;;;;;;4985198;28;20557;-74
2022/07/27 04:15:20;;;;;;;9.65;1.67;;;12.80;99.90;;;;;;4985072;28;20042;-74
2022/07/27 04:17:46;;;;;;;8.82;2.30;;;12.80;99.90;;;;;;4968443;28;20465;-74
2022/07/27 04:20:12;;;;;;;8.65;2.30;;;12.80;99.90;;;;;;4984721;28;20050;-74
2022/07/27 04:22:38;;;;;;;10.05;2.20;;;12.90;99.90;;;;;;5000602;28;20469;-74
2022/07/27 04:25:05;;;;;;;6.35;1.90;;;13.00;99.90;;;;;;4985466;28;20137;-74
2022/07/27 04:27:31;;;;;;;9.95;2.28;;;13.00;99.90;;;;;;4984576;28;20038;-74
2022/07/27 04:29:56;;;;;;;7.18;1.98;;;13.00;99.90;;;;;;4983085;28;20046;-74
2022/07/27 04:32:22;;;;;;;9.60;2.05;;;13.20;99.90;;;;;;4984465;28;20054;-74
2022/07/27 04:34:51;;;;;;;8.85;2.92;;;13.20;99.90;;;;;;4985621;28;20157;-73
2022/07/27 04:37:16;;;;;;;12.35;2.38;;;13.20;99.90;;;;;;4983768;28;20053;-74
2022/07/27 04:39:42;;;;;;;11.77;2.05;;;13.30;99.90;;;;;;4985489;28;20565;-74
2022/07/27 04:42:08;;;;;;;6.60;1.77;;;13.40;99.90;;;;;;4968057;28;20050;-74
2022/07/27 04:44:34;;;;;;;9.50;1.90;;;13.30;99.90;;;;;;4984124;28;20388;-74
2022/07/27 04:46:59;;;;;;;8.35;1.95;;;13.30;99.90;;;;;;4983351;28;20049;-74
2022/07/27 04:49:25;;;;;;;10.63;2.05;;;13.30;99.90;;;;;;4999646;28;20502;-74
2022/07/27 04:51:51;;;;;;;8.70;1.80;;;13.30;99.90;;;;;;4987820;28;20046;-74
2022/07/27 04:54:17;;;;;;;6.97;1.90;;;13.40;99.90;;;;;;4989220;28;20035;-74
2022/07/27 04:56:42;;;;;;;9.43;2.60;;;13.30;99.90;;;;;;4971079;28;20049;-73
2022/07/27 04:59:08;;;;;;;6.95;2.08;;;13.40;99.90;;;;;;4987492;28;20061;-74
2022/07/27 05:01:34;;;;;;;9.32;1.90;;;13.40;99.90;;;;;;4988143;28;20462;-73
2022/07/27 05:03:59;;;;;;;10.50;1.42;;;13.40;99.90;;;;;;4986960;28;20138;-74
2022/07/27 05:06:25;;;;;;;9.57;1.80;;;13.40;99.90;;;;;;4987108;28;20399;-74
2022/07/27 05:08:50;;;;;;;7.68;1.83;;;13.40;99.90;;;;;;4987097;28;20076;-74
2022/07/27 05:11:16;;;;;;;10.25;2.00;;;13.50;99.90;;;;;;4987367;28;20078;-74
2022/07/27 05:13:42;;;;;;;6.28;1.48;;;13.50;99.90;;;;;;4988057;28;20046;-74
2022/07/27 05:16:09;;;;;;;7.30;1.73;;;13.50;99.90;;;;;;4986429;28;20066;-74
2022/07/27 05:18:36;;;;;;;9.38;1.85;;;13.70;99.90;;;;;;5002442;28;20499;-73
2022/07/27 05:21:02;;;;;;;6.75;1.40;;;13.60;99.90;;;;;;4987207;28;20031;-73
2022/07/27 05:23:28;;;;;;;9.48;1.80;;;13.60;99.90;;;;;;4987013;28;20179;-73
2022/07/27 05:25:54;;;;;;;7.30;2.05;;;13.60;99.90;;;;;;4986960;28;20173;-74
2022/07/27 05:28:19;;;;;;;7.95;1.65;;;13.70;99.90;;;;;;4986918;28;20810;-74
2022/07/27 05:30:45;;;;;;;8.52;1.73;;;13.70;99.90;;;;;;4986778;28;20148;-74
2022/07/27 05:33:11;;;;;;;5.43;1.40;;;13.70;99.90;;;;;;4988006;28;20050;-73
2022/07/27 05:35:39;;;;;;;10.85;1.90;;;13.80;99.90;;;;;;4971321;28;20517;-73
2022/07/27 05:38:05;;;;;;;6.20;1.58;;;13.80;99.90;;;;;;5003305;28;20034;-73
2022/07/27 05:40:31;;;;;;;9.43;1.40;;;13.90;99.90;;;;;;4986268;28;20459;-73
2022/07/27 05:42:57;;;;;;;8.45;2.22;;;14.00;99.90;;;;;;4987151;28;20055;-74
2022/07/27 05:45:23;;;;;;;10.57;1.77;;;14.00;99.90;;;;;;4986975;28;20051;-74
2022/07/27 05:47:49;;;;;;;11.77;1.55;;;14.00;99.90;;;;;;4986064;28;20042;-73
2022/07/27 05:50:15;;;;;;;10.88;1.27;;;14.10;99.90;;;;;;4987223;28;20047;-75
2022/07/27 05:52:42;;;;;;;9.23;1.27;;;14.10;99.90;;;;;;4989189;28;20035;-74
2022/07/27 05:55:08;;;;;;;5.30;1.40;;;14.20;99.90;;;;;;4988253;28;20451;-73
2022/07/27 05:57:34;;;;;;;6.68;1.30;;;14.20;99.90;;;;;;4970732;28;20042;-74
2022/07/27 06:00:00;;;;;;;6.90;1.38;;;14.30;99.90;;;;;;4987685;28;20414;-73
2022/07/27 06:02:27;;;;;;;6.40;1.30;;;14.50;99.90;;;;;;4986206;28;20402;-73
2022/07/27 06:04:53;;;;;;;7.07;1.50;;;14.60;99.90;;;;;;4987213;28;20434;-73
2022/07/27 06:10:04;;;;;;;8.77;1.50;;;15.00;99.90;;;;;;5005160;28;20687;-73
2022/07/27 06:12:35;;;;;;;7.82;1.42;;;15.10;99.90;;;;;;4986640;28;20137;-75
2022/07/27 06:15:00;;;;;;;6.70;1.10;;;15.40;99.90;;;;;;4986821;28;20091;-74
2022/07/27 06:17:26;;;;;;;9.43;1.27;;;15.70;99.90;;;;;;4985872;28;20077;-73
2022/07/27 06:19:52;;;;;;;6.30;1.23;;;15.70;99.90;;;;;;4986111;28;20495;-74
2022/07/27 06:22:18;;;;;;;7.45;1.42;;;15.90;99.90;;;;;;4985696;28;20087;-74
2022/07/27 06:24:44;;;;;;;9.82;1.55;;;16.10;99.90;;;;;;4970810;28;20410;-74
2022/07/27 06:27:09;;;;;;;10.40;1.30;;;16.20;99.90;;;;;;4985441;28;20133;-73
2022/07/27 06:29:35;;;;;;;8.38;1.55;;;16.40;99.90;;;;;;4987241;28;20038;-74
2022/07/27 06:32:00;;;;;;;9.20;1.08;;;16.50;99.90;;;;;;4986089;28;20046;-73
2022/07/27 06:34:26;;;;;;;9.55;1.42;;;16.50;99.90;;;;;;4985800;28;20031;-74
2022/07/27 06:36:52;;;;;;;9.40;1.40;;;16.50;99.90;;;;;;4986425;28;20038;-73
2022/07/27 06:39:19;;;;;;;7.28;1.20;;;16.50;99.90;;;;;;4986094;28;20576;-75
2022/07/27 06:41:44;;;;;;;9.75;1.80;;;16.50;99.90;;;;;;4987119;28;20074;-74
2022/07/27 06:44:10;;;;;;;7.18;1.45;;;16.40;99.90;;;;;;4985962;28;20112;-74
2022/07/27 06:46:36;;;;;;;4.20;1.10;;;16.60;99.90;;;;;;4987270;28;20034;-74
2022/07/27 06:49:02;;;;;;;7.75;1.38;;;17.40;99.90;;;;;;4984945;28;20042;-74
2022/07/27 06:51:27;;;;;;;9.82;1.92;;;17.50;99.90;;;;;;4969019;28;20432;-74
2022/07/27 06:53:53;;;;;;;10.00;1.95;;;17.80;99.90;;;;;;4985787;28;20515;-74
2022/07/27 06:56:20;;;;;;;8.90;1.40;;;17.40;99.90;;;;;;4986570;28;20565;-74
2022/07/27 06:58:45;;;;;;;9.63;1.40;;;17.10;99.90;;;;;;4986338;28;20057;-73
2022/07/27 07:01:13;;;;;;;8.90;1.33;;;16.90;99.90;;;;;;4968922;28;20474;-74
2022/07/27 07:03:39;;;;;;;6.43;1.30;;;16.80;99.90;;;;;;4985409;28;20046;-74
2022/07/27 07:06:05;;;;;;;5.13;1.10;;;16.70;99.90;;;;;;4985652;28;20042;-74
2022/07/27 07:08:30;;;;;;;7.38;1.20;;;16.60;99.90;;;;;;4985059;28;20072;-74
2022/07/27 07:10:56;;;;;;;7.57;1.15;;;16.60;99.90;;;;;;4968807;28;20765;-74
2022/07/27 07:13:22;;;;;;;5.90;1.00;;;16.50;99.90;;;;;;4969285;28;20039;-74
2022/07/27 07:15:48;;;;;;;9.13;1.48;;;16.50;99.90;;;;;;5001811;28;20061;-73
2022/07/27 07:18:14;;;;;;;6.43;1.30;;;16.60;99.90;;;;;;4985210;28;20059;-73
2022/07/27 07:20:40;;;;;;;6.05;1.30;;;16.70;99.90;;;;;;4986860;28;20338;-73
2022/07/27 07:23:06;;;;;;;7.25;1.17;;;16.80;99.90;;;;;;4985750;28;20129;-74
2022/07/27 07:25:33;;;;;;;8.18;1.30;;;17.10;99.90;;;;;;4984107;28;20092;-74
2022/07/27 07:27:59;;;;;;;7.68;1.40;;;17.30;99.90;;;;;;4987537;28;20060;-75
2022/07/27 07:30:25;;;;;;;6.18;1.27;;;17.60;99.90;;;;;;4968635;28;20046;-73
2022/07/27 07:32:51;;;;;;;8.60;1.33;;;17.70;99.90;;;;;;4985269;28;20121;-75
2022/07/27 07:35:16;;;;;;;12.40;1.40;;;17.70;99.90;;;;;;4986339;28;20045;-74
2022/07/27 07:37:42;;;;;;;9.18;1.67;;;17.50;99.90;;;;;;4971368;28;20395;-72
2022/07/27 07:40:14;;;;;;;5.78;1.48;;;17.10;99.90;;;;;;4981170;28;20536;-72
2022/07/27 07:42:55;;;;;;;6.38;1.55;;;16.80;99.90;;;;;;4968823;28;20042;-73
2022/07/27 07:45:22;;;;;;;9.52;1.40;;;16.50;99.90;;;;;;4982034;28;20051;-74
2022/07/27 07:47:48;;;;;;;4.63;1.15;;;16.40;99.90;;;;;;4965932;28;20050;-73
2022/07/27 07:50:14;;;;;;;4.53;1.20;;;16.20;99.90;;;;;;4983867;28;20125;-73
2022/07/27 07:52:39;;;;;;;6.68;1.40;;;16.10;99.90;;;;;;4976206;28;20183;-74
2022/07/27 07:55:06;;;;;;;7.78;1.30;;;16.00;99.90;;;;;;4994211;28;20095;-71
2022/07/27 07:57:32;;;;;;;7.60;1.55;;;15.90;99.90;;;;;;5004500;28;20046;-76
2022/07/27 07:59:57;;;;;;;6.88;1.20;;;15.90;99.90;;;;;;4995402;28;20416;-72
2022/07/27 08:02:23;;;;;;;9.25;1.50;;;16.00;99.90;;;;;;4965602;28;20046;-72
2022/07/27 08:04:48;;;;;;;12.75;1.50;;;16.00;99.90;;;;;;4967661;28;20065;-72
2022/07/27 08:07:14;;;;;;;6.95;1.25;;;16.10;99.90;;;;;;4966006;28;20522;-76
2022/07/27 08:09:40;;;;;;;9.20;1.40;;;16.30;99.90;;;;;;5002728;28;20043;-71
2022/07/27 08:12:05;;;;;;;9.57;1.63;;;16.50;99.90;;;;;;4981654;28;20080;-72
2022/07/27 08:14:32;;;;;;;11.55;1.90;;;16.80;99.90;;;;;;4980972;28;20562;-72
2022/07/27 08:16:58;;;;;;;6.95;1.55;;;17.10;99.90;;;;;;4982157;28;20553;-75
2022/07/27 08:19:24;;;;;;;8.13;1.65;;;17.20;99.90;;;;;;4981166;28;20042;-73
2022/07/27 08:21:50;;;;;;;8.43;1.50;;;17.30;99.90;;;;;;4979542;28;20111;-75
2022/07/27 08:24:15;;;;;;;9.55;1.40;;;17.50;99.90;;;;;;4989700;28;20057;-73
2022/07/27 08:26:41;;;;;;;5.15;1.10;;;17.50;99.90;;;;;;4966857;28;20050;-76
2022/07/27 08:29:07;;;;;;;9.43;1.30;;;17.50;99.90;;;;;;4972808;28;20461;-73
2022/07/27 08:31:32;;;;;;;5.53;0.90;;;17.60;99.90;;;;;;4984134;28;20587;-74
2022/07/27 08:33:58;;;;;;;3.90;0.80;;;17.70;99.90;;;;;;4970848;28;20495;-73
2022/07/27 08:36:24;;;;;;;5.35;0.90;;;17.80;99.90;;;;;;4962769;28;20495;-73
2022/07/27 08:38:50;;;;;;;3.88;0.93;;;18.00;99.90;;;;;;4981364;28;20039;-73
2022/07/27 08:41:17;;;;;;;5.25;1.10;;;18.20;99.90;;;;;;4998973;28;20487;-75
2022/07/27 08:43:44;;;;;;;2.53;0.80;;;18.30;99.90;;;;;;4963005;28;20050;-74
2022/07/27 08:46:11;;;;;;;5.15;1.00;;;18.30;99.90;;;;;;4976435;28;20563;-75
2022/07/27 08:48:38;;;;;;;5.93;1.25;;;18.40;99.90;;;;;;5014869;28;20450;-73
2022/07/27 08:51:08;;;;;;;6.78;1.38;;;18.70;99.90;;;;;;4982670;28;20046;-72
2022/07/27 08:53:34;;;;;;;6.75;1.20;;;18.80;99.90;;;;;;4980871;28;20091;-72
2022/07/27 08:56:00;;;;;;;8.93;1.33;;;18.90;99.90;;;;;;4981543;28;20046;-74
2022/07/27 08:58:26;;;;;;;9.55;1.10;;;19.00;99.90;;;;;;4979778;28;20062;-74
2022/07/27 09:00:52;;;;;;;10.18;1.10;;;19.00;99.90;;;;;;4995572;28;20039;-72
2022/07/27 09:03:22;;;;;;;7.85;1.30;;;19.20;99.90;;;;;;4977620;28;20129;-74
2022/07/27 09:05:54;;;;;;;7.88;1.00;;;19.20;99.90;;;;;;5010666;28;20043;-73
2022/07/27 09:08:26;;;;;;;7.53;1.83;;;19.20;99.90;;;;;;4982524;28;20056;-73
2022/07/27 09:10:54;;;;;;;6.88;1.02;;;19.30;99.90;;;;;;4964376;28;20052;-73
2022/07/27 09:13:24;;;;;;;8.57;1.35;;;19.40;99.90;;;;;;4979895;28;20129;-75
2022/07/27 09:16:02;;;;;;;4.13;1.10;;;19.60;99.90;;;;;;4994393;28;20570;-75
2022/07/27 09:18:32;;;;;;;6.40;1.00;;;19.70;99.90;;;;;;4980469;28;20722;-74
2022/07/27 09:21:16;;;;;;;5.75;0.93;;;19.70;99.90;;;;;;4998753;28;20103;-73
2022/07/27 09:23:56;;;;;;;9.02;1.05;;;19.90;99.90;;;;;;4968711;28;20583;-72
2022/07/27 09:26:25;;;;;;;6.57;1.10;;;20.10;99.90;;;;;;5001352;28;20100;-73
2022/07/27 09:28:57;;;;;;;9.43;1.45;;;20.00;99.90;;;;;;4991985;28;20051;-74
2022/07/27 09:31:24;;;;;;;6.45;1.08;;;19.80;99.90;;;;;;4976901;28;20046;-73
2022/07/27 09:33:56;;;;;;;3.25;1.00;;;19.70;99.90;;;;;;4977512;28;20045;-73
2022/07/27 09:36:24;;;;;;;7.18;1.33;;;19.90;99.90;;;;;;4981475;28;20052;-72
2022/07/27 09:39:01;;;;;;;4.32;1.15;;;20.40;99.90;;;;;;5018111;27;20384;-72
2022/07/27 09:41:37;;;;;;;5.93;1.08;;;20.60;99.90;;;;;;5001806;28;20057;-73
2022/07/27 09:44:03;;;;;;;4.38;1.08;;;20.60;99.90;;;;;;4979666;28;20398;-71
2022/07/27 09:46:35;;;;;;;7.47;1.10;;;20.40;99.90;;;;;;4999227;28;20050;-72
2022/07/27 09:49:01;;;;;;;6.85;1.25;;;20.30;99.90;;;;;;4985945;28;20411;-72
2022/07/27 09:51:27;;;;;;;3.78;0.98;;;20.20;99.90;;;;;;4982566;28;20472;-72
2022/07/27 09:53:54;;;;;;;5.13;1.08;;;20.00;99.90;;;;;;4981243;28;20121;-73
2022/07/27 09:56:31;;;;;;;3.55;1.10;;;19.90;99.90;;;;;;4979104;28;20057;-74
2022/07/27 09:59:02;;;;;;;4.75;0.70;;;19.80;99.90;;;;;;5008440;28;20110;-71
2022/07/27 10:01:39;;;;;;;4.57;1.00;;;20.00;99.90;;;;;;4982259;28;20073;-72
2022/07/27 10:04:06;;;;;;;5.95;1.02;;;20.10;99.90;;;;;;4987156;28;20045;-73
2022/07/27 10:06:32;;;;;;;6.40;0.90;;;20.20;99.90;;;;;;4983522;28;20471;-71
2022/07/27 10:08:59;;;;;;;6.05;1.20;;;20.20;99.90;;;;;;4983626;28;20120;-73
2022/07/27 10:11:26;;;;;;;4.32;0.90;;;20.30;99.90;;;;;;4965884;28;20039;-73
2022/07/27 10:13:53;;;;;;;9.18;1.10;;;20.60;99.90;;;;;;4967475;28;20121;-72
2022/07/27 10:16:23;;;;;;;7.50;1.05;;;21.00;99.90;;;;;;4980723;28;20046;-72
2022/07/27 10:19:04;;;;;;;3.70;0.90;;;21.50;99.90;;;;;;5007025;28;20050;-74
2022/07/27 10:21:31;;;;;;;4.97;0.90;;;21.90;99.10;;;;;;4979421;28;20049;-73
2022/07/27 10:23:58;;;;;;;2.60;0.70;;;22.00;98.50;;;;;;4981059;28;21034;-71
2022/07/27 10:26:23;;;;;;;3.88;0.70;;;21.80;97.90;;;;;;4995345;28;20567;-70
2022/07/27 10:28:55;;;;;;;4.07;0.88;;;21.40;96.10;;;;;;4986823;28;20050;-73
2022/07/27 10:31:29;;;;;;;6.18;1.05;;;21.10;97.70;;;;;;5018718;28;20145;-71
2022/07/27 10:33:57;;;;;;;4.15;1.35;;;20.90;97.00;;;;;;4995287;28;20061;-73
2022/07/27 10:36:23;;;;;;;6.65;1.02;;;20.70;98.00;;;;;;4978369;28;20058;-71
2022/07/27 10:38:50;;;;;;;7.07;1.27;;;20.50;98.30;;;;;;4997334;28;20042;-73
2022/07/27 10:41:40;;;;;;;7.18;1.02;;;20.40;98.80;;;;;;4977072;28;20046;-72
2022/07/27 10:44:19;;;;;;;7.97;1.00;;;20.80;99.90;;;;;;4984581;28;20074;-73
2022/07/27 10:47:05;;;;;;;3.88;1.02;;;21.40;99.90;;;;;;4999512;28;20047;-71
2022/07/27 10:49:36;;;;;;;7.10;0.68;;;21.60;97.80;;;;;;4980181;28;20088;-72
2022/07/27 10:52:03;;;;;;;4.97;0.73;;;21.50;97.90;;;;;;4998471;28;20049;-73
2022/07/27 10:54:37;;;;;;;2.30;0.70;;;21.40;97.50;;;;;;5011365;28;20418;-73
2022/07/27 10:57:06;;;;;;;3.83;0.75;;;21.60;97.30;;;;;;4985495;28;20129;-71
2022/07/27 10:59:42;;;;;;;5.30;0.80;;;21.90;97.00;;;;;;4984839;28;20918;-72
2022/07/27 11:02:13;;;;;;;5.55;0.82;;;22.20;97.40;;;;;;4966515;28;20078;-72
2022/07/27 11:04:43;;;;;;;3.53;0.80;;;22.40;96.10;;;;;;5020856;27;20042;-74
2022/07/27 11:07:09;;;;;;;3.83;0.60;;;22.10;95.60;;;;;;4980336;28;20046;-73
2022/07/27 11:09:45;;;;;;;5.72;0.70;;;21.70;95.40;;;;;;5011307;27;20789;-73
2022/07/27 11:12:12;;;;;;;1.80;0.57;;;21.30;93.90;;;;;;4975070;28;20050;-71
2022/07/27 11:14:56;;;;;;;5.60;1.30;;;21.50;95.70;;;;;;4986261;28;20499;-69
2022/07/27 11:17:29;;;;;;;5.18;0.80;;;21.80;93.00;;;;;;4989790;28;20129;-73
2022/07/27 11:19:57;;;;;;;4.43;0.80;;;22.00;93.80;;;;;;4986213;28;20514;-72
2022/07/27 11:22:30;;;;;;;5.07;0.93;;;22.30;93.80;;;;;;4995892;28;20375;-73
2022/07/27 11:24:55;;;;;;;4.25;0.60;;;22.30;92.50;;;;;;4987460;28;20046;-74
2022/07/27 11:27:21;;;;;;;8.27;0.80;;;21.90;92.40;;;;;;4987645;28;20460;-71
2022/07/27 11:29:47;;;;;;;4.45;0.82;;;21.60;92.50;;;;;;4983363;28;20030;-73
2022/07/27 11:32:18;;;;;;;5.10;0.95;;;21.80;93.20;;;;;;4981340;28;20047;-71
2022/07/27 11:34:44;;;;;;;7.40;1.00;;;21.90;92.40;;;;;;4987730;28;20411;-74
2022/07/27 11:37:23;;;;;;;3.17;0.60;;;22.30;94.70;;;;;;4991038;28;20046;-74
2022/07/27 11:39:59;;;;;;;3.15;0.73;;;22.70;94.20;;;;;;4987984;28;20048;-73
2022/07/27 11:42:37;;;;;;;3.38;0.70;;;23.20;93.80;;;;;;4984094;28;20092;-71
2022/07/27 11:45:03;;;;;;;3.70;0.70;;;23.50;91.70;;;;;;5012922;28;20042;-73
2022/07/27 11:47:29;;;;;;;6.22;1.00;;;23.50;92.30;;;;;;4998897;28;20093;-71
2022/07/27 11:50:07;;;;;;;7.07;1.00;;;23.40;91.60;;;;;;5019728;27;20030;-73
2022/07/27 11:52:32;;;;;;;5.22;0.98;;;23.10;91.80;;;;;;4997416;28;20046;-74
2022/07/27 11:54:58;;;;;;;4.45;0.60;;;22.50;92.50;;;;;;4986305;28;20230;-72
2022/07/27 11:57:31;;;;;;;3.95;0.82;;;22.00;93.00;;;;;;5027005;27;20060;-72
2022/07/27 11:59:57;;;;;;;4.53;0.80;;;21.40;91.90;;;;;;4963808;28;20050;-74
2022/07/27 12:02:25;;;;;;;5.80;1.08;;;21.20;92.70;;;;;;4986330;28;20086;-72
2022/07/27 12:04:52;;;;;;;3.60;0.80;;;21.20;93.60;;;;;;4982306;28;20080;-73
2022/07/27 12:07:30;;;;;;;4.97;0.70;;;21.50;94.30;;;;;;4981931;28;20628;-72
2022/07/27 12:10:01;;;;;;;5.97;0.98;;;21.60;93.40;;;;;;4984323;28;20626;-72
2022/07/27 12:12:32;;;;;;;6.82;0.70;;;21.40;93.90;;;;;;4982363;28;20050;-73
2022/07/27 12:15:12;;;;;;;5.80;0.93;;;21.20;93.70;;;;;;4967124;28;20682;-74
2022/07/27 12:17:39;;;;;;;6.40;1.57;;;21.10;94.40;;;;;;4981805;28;20493;-72
2022/07/27 12:20:05;;;;;;;6.68;1.30;;;21.30;94.90;;;;;;4984714;28;20146;-73
2022/07/27 12:22:38;;;;;;;4.43;1.10;;;21.30;94.90;;;;;;4982616;28;20559;-70
2022/07/27 12:25:08;;;;;;;6.57;1.20;;;21.30;94.90;;;;;;4983591;28;20070;-72
2022/07/27 12:27:35;;;;;;;6.63;1.10;;;21.20;94.80;;;;;;4983757;28;20042;-72
2022/07/27 12:30:10;;;;;;;6.90;1.17;;;21.20;95.50;;;;;;5017718;28;20054;-71
2022/07/27 12:32:41;;;;;;;5.55;0.95;;;21.00;95.20;;;;;;4996012;28;20061;-71
2022/07/27 12:35:20;;;;;;;6.18;1.05;;;20.80;95.70;;;;;;4984534;28;20511;-70
2022/07/27 12:37:47;;;;;;;6.40;1.08;;;20.60;95.60;;;;;;4988772;28;20399;-71
2022/07/27 12:40:17;;;;;;;4.43;0.90;;;20.50;95.40;;;;;;4981054;28;20085;-70
2022/07/27 12:43:01;;;;;;;7.10;1.20;;;20.40;96.00;;;;;;4982113;28;20040;-70
2022/07/27 12:45:34;;;;;;;4.22;0.82;;;20.60;96.20;;;;;;5023083;28;20047;-71
2022/07/27 12:48:24;;;;;;;5.40;0.95;;;20.90;95.60;;;;;;4988343;28;20403;-71
2022/07/27 12:51:05;;;;;;;6.70;0.93;;;20.90;95.50;;;;;;5002080;28;20074;-70
2022/07/27 12:53:33;;;;;;;4.78;0.90;;;20.90;95.50;;;;;;4990109;28;20053;-74
2022/07/27 12:56:02;;;;;;;8.48;1.00;;;20.90;96.60;;;;;;4977311;28;20158;-70